createdAt,value
2019-03-21T00:01:58.484Z,41.79
2019-03-21T00:04:25.053Z,41.93
2019-03-21T00:06:51.642Z,41.47
2019-03-21T00:09:18.259Z,42.02
2019-03-21T00:11:44.852Z,41.74
2019-03-21T00:14:11.426Z,42.74
2019-03-21T00:16:38.029Z,42.02
2019-03-21T00:19:04.606Z,42.41
2019-03-21T00:21:31.210Z,41.91
2019-03-21T00:23:57.779Z,42.22
2019-03-21T00:26:24.354Z,42.37
2019-03-21T00:28:50.930Z,41.42
2019-03-21T00:31:17.498Z,41.64
2019-03-21T00:33:44.073Z,41.44
2019-03-21T00:36:10.644Z,41.75
2019-03-21T00:38:37.218Z,43.04
2019-03-21T00:41:03.789Z,42.29
2019-03-21T00:43:30.364Z,42.18
2019-03-21T00:45:56.954Z,42.27
2019-03-21T00:48:23.505Z,42.26
2019-03-21T00:50:50.077Z,43.96
2019-03-21T00:53:16.666Z,42.31
2019-03-21T00:55:43.245Z,42.65
2019-03-21T00:58:09.833Z,43.09
2019-03-21T01:00:36.481Z,42.23
2019-03-21T01:03:03.825Z,42.62
2019-03-21T01:05:30.625Z,42.73
2019-03-21T01:07:57.238Z,42.24
2019-03-21T01:10:23.806Z,42.33
2019-03-21T01:12:50.412Z,42.23
2019-03-21T01:15:16.975Z,41.98
2019-03-21T01:17:43.590Z,42.28
2019-03-21T01:20:10.237Z,42.21
2019-03-21T01:22:36.867Z,42.30
2019-03-21T01:25:03.437Z,42.38
2019-03-21T01:27:30.036Z,42.14
2019-03-21T01:29:56.610Z,42.37
2019-03-21T01:32:23.214Z,42.32
2019-03-21T01:34:49.793Z,43.31
2019-03-21T01:37:16.406Z,43.69
2019-03-21T01:39:42.990Z,43.37
2019-03-21T01:42:09.587Z,44.56
2019-03-21T01:44:41.014Z,42.78
2019-03-21T01:47:04.510Z,42.77
2019-03-21T01:49:31.088Z,43.10
2019-03-21T01:51:57.667Z,43.04
2019-03-21T01:54:24.242Z,42.75
2019-03-21T01:56:50.814Z,42.55
2019-03-21T01:59:17.393Z,42.55
2019-03-21T02:01:43.964Z,42.69
2019-03-21T02:04:10.571Z,42.66
2019-03-21T02:06:37.198Z,42.80
2019-03-21T02:09:03.781Z,42.98
2019-03-21T02:11:30.363Z,43.09
2019-03-21T02:13:56.950Z,42.85
2019-03-21T02:16:23.533Z,42.88
2019-03-21T02:18:50.182Z,43.48
2019-03-21T02:21:16.768Z,43.59
2019-03-21T02:23:43.342Z,42.78
2019-03-21T02:26:09.918Z,42.83
2019-03-21T02:28:36.609Z,42.73
2019-03-21T02:31:03.182Z,42.79
2019-03-21T02:33:29.756Z,43.02
2019-03-21T02:35:56.338Z,43.05
2019-03-21T02:38:22.915Z,42.94
2019-03-21T02:40:49.498Z,42.59
2019-03-21T02:43:16.080Z,43.30
2019-03-21T02:45:42.660Z,43.12
2019-03-21T02:48:09.234Z,42.58
2019-03-21T02:50:35.804Z,42.71
2019-03-21T02:53:02.441Z,42.71
2019-03-21T02:55:29.079Z,43.30
2019-03-21T02:57:55.688Z,43.21
2019-03-21T03:00:22.258Z,42.85
2019-03-21T03:02:48.865Z,43.36
2019-03-21T03:05:15.458Z,42.64
2019-03-21T03:07:42.124Z,42.71
2019-03-21T03:10:08.698Z,42.68
2019-03-21T03:12:35.283Z,42.99
2019-03-21T03:15:01.864Z,42.86
2019-03-21T03:17:28.442Z,42.79
2019-03-21T03:19:55.018Z,42.87
2019-03-21T03:22:21.661Z,42.88
2019-03-21T03:24:48.265Z,42.65
2019-03-21T03:27:14.848Z,42.68
2019-03-21T03:29:41.424Z,42.90
2019-03-21T03:32:07.999Z,43.16
2019-03-21T03:34:34.589Z,42.83
2019-03-21T03:37:01.148Z,43.05
2019-03-21T03:39:27.720Z,43.74
2019-03-21T03:41:54.288Z,43.61
2019-03-21T03:44:20.861Z,43.68
2019-03-21T03:46:47.434Z,43.50
2019-03-21T03:49:13.998Z,43.58
2019-03-21T03:51:40.575Z,43.17
2019-03-21T03:54:07.150Z,43.07
2019-03-21T03:56:33.721Z,43.10
2019-03-21T03:59:00.301Z,43.35
2019-03-21T04:01:26.883Z,43.02
2019-03-21T04:03:53.461Z,42.70
2019-03-21T04:06:20.037Z,43.02
2019-03-21T04:08:46.610Z,43.09
2019-03-21T04:11:13.192Z,43.53
2019-03-21T04:13:39.796Z,43.11
2019-03-21T04:16:06.373Z,43.29
2019-03-21T04:18:32.992Z,43.14
2019-03-21T04:20:59.584Z,43.22
2019-03-21T04:23:26.202Z,43.06
2019-03-21T04:25:52.791Z,43.34
2019-03-21T04:28:19.401Z,42.92
2019-03-21T04:30:46.013Z,42.99
2019-03-21T04:33:12.786Z,43.00
2019-03-21T04:35:39.351Z,42.92
2019-03-21T04:38:05.996Z,42.93
2019-03-21T04:40:32.585Z,44.14
2019-03-21T04:42:59.178Z,43.16
2019-03-21T04:45:25.751Z,43.07
2019-03-21T04:47:52.329Z,42.85
2019-03-21T04:50:18.905Z,43.03
2019-03-21T04:52:45.486Z,42.69
2019-03-21T04:55:12.068Z,42.96
2019-03-21T04:57:38.666Z,42.67
2019-03-21T05:00:05.249Z,42.64
2019-03-21T05:02:31.825Z,42.65
2019-03-21T05:04:58.405Z,42.76
2019-03-21T05:07:24.983Z,42.44
2019-03-21T05:09:51.565Z,42.63
2019-03-21T05:12:18.142Z,43.13
2019-03-21T05:14:44.739Z,42.65
2019-03-21T05:17:11.302Z,42.48
2019-03-21T05:19:37.888Z,42.48
2019-03-21T05:22:04.455Z,42.68
2019-03-21T05:24:31.046Z,42.69
2019-03-21T05:26:57.632Z,42.53
2019-03-21T05:29:24.234Z,42.41
2019-03-21T05:31:50.802Z,42.53
2019-03-21T05:34:17.390Z,42.75
2019-03-21T05:36:43.953Z,42.80
2019-03-21T05:39:10.564Z,42.72
2019-03-21T05:41:37.132Z,43.27
2019-03-21T05:44:03.709Z,42.82
2019-03-21T05:46:30.286Z,42.44
2019-03-21T05:48:56.868Z,42.19
2019-03-21T05:51:23.437Z,42.45
2019-03-21T05:53:50.092Z,42.14
2019-03-21T05:56:16.664Z,42.01
2019-03-21T05:58:43.235Z,41.96
2019-03-21T06:01:09.838Z,41.88
2019-03-21T06:03:36.408Z,41.65
2019-03-21T06:06:02.992Z,41.57
2019-03-21T06:08:29.566Z,41.48
2019-03-21T06:10:56.146Z,41.51
2019-03-21T06:13:22.737Z,41.51
2019-03-21T06:15:49.311Z,41.46
2019-03-21T06:18:15.895Z,41.25
2019-03-21T06:20:42.469Z,41.49
2019-03-21T06:23:09.055Z,41.30
2019-03-21T06:25:35.637Z,41.41
2019-03-21T06:28:02.216Z,41.37
2019-03-21T06:30:28.799Z,41.17
2019-03-21T06:32:55.381Z,41.27
2019-03-21T06:35:21.953Z,41.08
2019-03-21T06:37:48.532Z,41.01
2019-03-21T06:40:15.114Z,41.09
2019-03-21T06:42:41.687Z,40.93
2019-03-21T06:45:08.265Z,40.79
2019-03-21T06:47:34.847Z,40.67
2019-03-21T06:50:01.419Z,40.51
2019-03-21T06:52:27.998Z,40.21
2019-03-21T06:54:54.579Z,40.03
2019-03-21T06:57:21.158Z,39.91
2019-03-21T06:59:47.736Z,39.87
2019-03-21T07:02:14.312Z,39.73
2019-03-21T07:04:40.932Z,39.66
2019-03-21T07:07:08.579Z,39.69
2019-03-21T07:09:35.460Z,39.46
2019-03-21T07:12:02.056Z,39.51
2019-03-21T07:14:28.639Z,39.39
2019-03-21T07:17:00.254Z,39.39
2019-03-21T07:19:24.034Z,39.31
2019-03-21T07:21:50.649Z,39.31
2019-03-21T07:24:17.226Z,39.29
2019-03-21T07:26:43.841Z,39.38
2019-03-21T07:29:10.413Z,39.37
2019-03-21T07:31:37.006Z,39.28
2019-03-21T07:34:03.578Z,39.25
2019-03-21T07:36:30.193Z,39.18
2019-03-21T07:38:56.763Z,39.22
2019-03-21T07:41:23.373Z,39.17
2019-03-21T07:43:49.955Z,39.15
2019-03-21T07:46:16.550Z,39.14
2019-03-21T07:48:43.127Z,39.15
2019-03-21T07:51:09.745Z,39.07
2019-03-21T07:53:36.328Z,39.07
2019-03-21T07:56:02.914Z,39.02
2019-03-21T07:58:29.519Z,38.88
2019-03-21T08:00:56.136Z,38.74
2019-03-21T08:03:22.717Z,38.74
2019-03-21T08:05:49.433Z,38.75
2019-03-21T08:08:16.014Z,38.67
2019-03-21T08:10:42.630Z,38.55
2019-03-21T08:13:09.209Z,38.57
2019-03-21T08:15:37.832Z,38.52
2019-03-21T08:18:04.208Z,38.46
2019-03-21T08:20:30.825Z,38.57
2019-03-21T08:22:57.400Z,38.43
2019-03-21T08:25:24.012Z,38.36
2019-03-21T08:27:51.838Z,38.18
2019-03-21T08:30:18.673Z,38.15
2019-03-21T08:32:45.244Z,38.12
2019-03-21T08:35:11.818Z,37.93
2019-03-21T08:37:38.398Z,38.00
2019-03-21T08:40:04.984Z,37.87
2019-03-21T08:42:31.559Z,37.72
2019-03-21T08:44:58.128Z,37.73
2019-03-21T08:47:24.708Z,37.57
2019-03-21T08:49:51.295Z,37.58
2019-03-21T08:52:17.887Z,37.59
2019-03-21T08:54:44.450Z,37.39
2019-03-21T08:57:11.054Z,37.33
2019-03-21T08:59:37.675Z,37.21
2019-03-21T09:02:04.258Z,37.18
2019-03-21T09:04:30.828Z,37.13
2019-03-21T09:06:57.408Z,37.11
2019-03-21T09:09:23.989Z,37.03
2019-03-21T09:11:50.561Z,36.93
2019-03-21T09:14:17.145Z,36.95
2019-03-21T09:16:43.737Z,36.75
2019-03-21T09:19:10.305Z,36.50
2019-03-21T09:21:36.962Z,36.46
2019-03-21T09:24:03.542Z,36.35
2019-03-21T09:26:30.162Z,36.00
2019-03-21T09:28:56.749Z,36.08
2019-03-21T09:31:23.361Z,36.03
2019-03-21T09:33:49.951Z,36.05
2019-03-21T09:36:16.564Z,36.02
2019-03-21T09:38:43.141Z,36.08
2019-03-21T09:41:09.761Z,35.98
2019-03-21T09:43:36.355Z,35.74
2019-03-21T09:46:02.935Z,36.01
2019-03-21T09:48:29.513Z,36.06
2019-03-21T09:50:56.163Z,35.94
2019-03-21T09:53:22.740Z,35.74
2019-03-21T09:55:49.313Z,35.83
2019-03-21T09:58:15.898Z,35.87
2019-03-21T10:00:42.472Z,35.84
2019-03-21T10:03:09.047Z,35.76
2019-03-21T10:05:35.616Z,35.70
2019-03-21T10:08:02.189Z,35.69
2019-03-21T10:10:28.782Z,35.79
2019-03-21T10:12:55.678Z,35.98
2019-03-21T10:15:22.418Z,35.65
2019-03-21T10:17:49.021Z,35.43
2019-03-21T10:20:15.595Z,35.40
2019-03-21T10:22:42.206Z,35.38
2019-03-21T10:25:08.791Z,35.16
2019-03-21T10:27:35.408Z,35.14
2019-03-21T10:30:01.988Z,34.89
2019-03-21T10:32:28.705Z,34.86
2019-03-21T10:34:55.277Z,34.99
2019-03-21T10:37:21.893Z,35.09
2019-03-21T10:39:48.525Z,35.13
2019-03-21T10:42:15.155Z,35.09
2019-03-21T10:44:41.714Z,35.09
2019-03-21T10:47:08.340Z,35.24
2019-03-21T10:49:34.926Z,35.17
2019-03-21T10:52:01.545Z,35.21
2019-03-21T10:54:28.118Z,35.17
2019-03-21T10:56:54.717Z,34.87
2019-03-21T10:59:21.363Z,34.85
2019-03-21T11:01:47.958Z,34.82
2019-03-21T11:04:14.565Z,34.98
2019-03-21T11:06:41.170Z,35.08
2019-03-21T11:09:07.759Z,35.15
2019-03-21T11:11:34.374Z,35.26
2019-03-21T11:14:00.958Z,35.36
2019-03-21T11:16:27.533Z,35.10
2019-03-21T11:18:54.120Z,35.06
2019-03-21T11:21:20.697Z,34.90
2019-03-21T11:23:47.268Z,35.03
2019-03-21T11:26:13.844Z,35.11
2019-03-21T11:28:40.416Z,35.24
2019-03-21T11:31:06.990Z,35.27
2019-03-21T11:33:33.570Z,35.15
2019-03-21T11:36:00.158Z,35.17
2019-03-21T11:38:26.737Z,35.16
2019-03-21T11:40:53.327Z,35.05
2019-03-21T11:43:19.913Z,34.93
2019-03-21T11:45:47.779Z,34.70
2019-03-21T11:48:14.722Z,34.72
2019-03-21T11:50:41.301Z,34.79
2019-03-21T11:53:07.876Z,34.91
2019-03-21T11:55:34.453Z,34.82
2019-03-21T11:58:01.026Z,34.79
2019-03-21T12:00:27.621Z,34.73
2019-03-21T12:02:54.183Z,34.59
2019-03-21T12:05:20.768Z,34.50
2019-03-21T12:07:47.339Z,34.46
2019-03-21T12:10:13.922Z,34.52
2019-03-21T12:12:40.511Z,34.62
2019-03-21T12:15:07.100Z,34.68
2019-03-21T12:17:33.684Z,34.82
2019-03-21T12:20:00.453Z,35.09
2019-03-21T12:22:30.295Z,35.34
2019-03-21T12:24:56.219Z,35.82
2019-03-21T12:27:22.822Z,36.21
2019-03-21T12:29:49.403Z,36.12
2019-03-21T12:32:16.014Z,36.53
2019-03-21T12:34:42.603Z,36.69
2019-03-21T12:37:09.213Z,36.64
2019-03-21T12:39:35.793Z,37.08
2019-03-21T12:42:02.367Z,37.71
2019-03-21T12:44:28.950Z,37.50
2019-03-21T12:46:55.529Z,37.04
2019-03-21T12:49:22.106Z,37.54
2019-03-21T12:51:48.688Z,37.44
2019-03-21T12:54:15.263Z,37.41
2019-03-21T12:56:41.833Z,37.34
2019-03-21T12:59:08.409Z,37.00
2019-03-21T13:01:34.991Z,36.84
2019-03-21T13:04:01.583Z,36.66
2019-03-21T13:06:28.164Z,36.51
2019-03-21T13:08:54.736Z,36.23
2019-03-21T13:11:21.406Z,35.94
2019-03-21T13:13:47.993Z,35.75
2019-03-21T13:16:14.576Z,35.64
2019-03-21T13:18:41.163Z,35.62
2019-03-21T13:21:07.752Z,35.78
2019-03-21T13:23:34.367Z,36.04
2019-03-21T13:26:00.949Z,36.06
2019-03-21T13:28:27.554Z,36.09
2019-03-21T13:30:54.137Z,36.31
2019-03-21T13:33:20.744Z,36.53
2019-03-21T13:35:47.320Z,36.60
2019-03-21T13:38:13.970Z,36.51
2019-03-21T13:40:40.551Z,36.73
2019-03-21T13:43:07.181Z,36.71
2019-03-21T13:45:33.772Z,36.88
2019-03-21T13:48:00.536Z,36.79
2019-03-21T13:50:27.149Z,36.85
2019-03-21T13:53:04.221Z,37.03
2019-03-21T13:55:22.085Z,37.14
2019-03-21T13:57:48.705Z,37.22
2019-03-21T14:00:15.274Z,37.24
2019-03-21T14:02:41.867Z,37.51
2019-03-21T14:05:08.444Z,37.73
2019-03-21T14:07:35.032Z,37.86
2019-03-21T14:10:01.611Z,38.25
2019-03-21T14:12:28.273Z,38.12
2019-03-21T14:14:54.845Z,38.93
2019-03-21T14:17:22.323Z,38.52
2019-03-21T14:19:49.076Z,38.98
2019-03-21T14:22:15.695Z,40.31
2019-03-21T14:24:42.286Z,39.95
2019-03-21T14:27:08.865Z,40.33
2019-03-21T14:29:35.491Z,40.38
2019-03-21T14:32:02.069Z,40.29
2019-03-21T14:34:28.683Z,40.63
2019-03-21T14:36:55.258Z,40.79
2019-03-21T14:39:21.838Z,40.90
2019-03-21T14:41:48.424Z,40.86
2019-03-21T14:44:15.015Z,40.75
2019-03-21T14:46:41.597Z,40.88
2019-03-21T14:49:08.167Z,41.41
2019-03-21T14:51:34.745Z,41.51
2019-03-21T14:54:01.326Z,42.02
2019-03-21T14:56:27.898Z,42.38
2019-03-21T14:58:54.517Z,41.95
2019-03-21T15:01:21.141Z,42.43
2019-03-21T15:03:47.826Z,42.84
2019-03-21T15:06:14.401Z,42.77
2019-03-21T15:08:41.022Z,42.44
2019-03-21T15:11:16.508Z,42.41
2019-03-21T15:13:36.081Z,42.43
2019-03-21T15:16:03.160Z,43.16
2019-03-21T15:18:29.781Z,42.80
2019-03-21T15:20:56.346Z,43.05
2019-03-21T15:23:25.687Z,42.67
2019-03-21T15:25:51.351Z,43.32
2019-03-21T15:28:17.928Z,43.01
2019-03-21T15:30:44.535Z,43.08
2019-03-21T15:33:11.160Z,42.86
2019-03-21T15:35:37.743Z,43.43
2019-03-21T15:38:04.424Z,43.38
2019-03-21T15:40:30.994Z,43.39
2019-03-21T15:42:57.576Z,43.49
2019-03-21T15:45:24.272Z,43.58
2019-03-21T15:47:50.930Z,43.49
2019-03-21T15:50:17.526Z,43.91
2019-03-21T15:52:44.102Z,43.89
2019-03-21T15:55:10.739Z,44.16
2019-03-21T15:57:37.309Z,44.12
2019-03-21T16:00:03.930Z,44.19
2019-03-21T16:02:30.504Z,44.02
2019-03-21T16:04:57.102Z,44.06
2019-03-21T16:07:23.675Z,44.38
2019-03-21T16:09:50.303Z,44.06
2019-03-21T16:12:16.987Z,44.06
2019-03-21T16:14:43.595Z,44.00
2019-03-21T16:17:10.166Z,44.24
2019-03-21T16:19:36.781Z,44.21
2019-03-21T16:22:03.360Z,44.22
2019-03-21T16:24:29.968Z,44.12
2019-03-21T16:26:56.553Z,44.28
2019-03-21T16:29:23.158Z,44.20
2019-03-21T16:31:49.742Z,44.25
2019-03-21T16:34:16.358Z,44.63
2019-03-21T16:36:42.937Z,44.34
2019-03-21T16:39:09.547Z,44.31
2019-03-21T16:41:36.194Z,44.52
2019-03-21T16:44:02.805Z,44.56
2019-03-21T16:46:29.388Z,44.48
2019-03-21T16:48:56.012Z,44.91
2019-03-21T16:51:22.594Z,45.08
2019-03-21T16:53:57.292Z,44.86
2019-03-21T16:56:23.874Z,45.64
2019-03-21T16:58:50.442Z,45.31
2019-03-21T17:01:17.020Z,44.96
2019-03-21T17:03:43.597Z,45.36
2019-03-21T17:06:10.187Z,45.00
2019-03-21T17:08:36.766Z,45.32
2019-03-21T17:11:03.406Z,45.31
2019-03-21T17:13:29.992Z,45.43
2019-03-21T17:15:56.565Z,45.33
2019-03-21T17:18:23.142Z,45.37
2019-03-21T17:20:49.805Z,45.60
2019-03-21T17:23:16.434Z,45.65
2019-03-21T17:25:43.157Z,45.94
2019-03-21T17:28:09.741Z,45.96
2019-03-21T17:30:36.327Z,45.79
2019-03-21T17:33:02.907Z,45.67
2019-03-21T17:35:29.481Z,46.18
2019-03-21T17:37:56.065Z,45.87
2019-03-21T17:40:22.649Z,46.68
2019-03-21T17:42:49.219Z,46.10
2019-03-21T17:45:15.800Z,46.15
2019-03-21T17:47:42.379Z,46.10
2019-03-21T17:50:08.953Z,46.57
2019-03-21T17:52:35.549Z,46.15
2019-03-21T17:55:02.123Z,46.28
2019-03-21T17:57:34.469Z,46.34
2019-03-21T17:59:57.009Z,46.56
2019-03-21T18:02:23.588Z,46.57
2019-03-21T18:04:50.226Z,46.85
2019-03-21T18:07:16.826Z,46.52
2019-03-21T18:09:43.447Z,46.50
2019-03-21T18:12:10.284Z,46.61
2019-03-21T18:14:37.033Z,46.86
2019-03-21T18:17:03.620Z,46.78
2019-03-21T18:19:30.215Z,46.97
2019-03-21T18:21:56.795Z,47.31
2019-03-21T18:24:23.373Z,47.95
2019-03-21T18:26:49.956Z,47.27
2019-03-21T18:29:16.548Z,47.04
2019-03-21T18:31:43.125Z,47.76
2019-03-21T18:34:09.711Z,48.40
2019-03-21T18:36:36.323Z,47.94
2019-03-21T18:39:02.912Z,47.93
2019-03-21T18:41:29.517Z,48.44
2019-03-21T18:43:56.084Z,48.13
2019-03-21T18:46:22.713Z,48.42
2019-03-21T18:48:49.294Z,48.48
2019-03-21T18:51:16.005Z,48.31
2019-03-21T18:53:42.581Z,48.28
2019-03-21T18:56:09.656Z,48.30
2019-03-21T18:58:36.450Z,48.63
2019-03-21T19:01:03.099Z,48.48
2019-03-21T19:03:29.693Z,48.45
2019-03-21T19:05:56.296Z,48.60
2019-03-21T19:08:23.202Z,48.50
2019-03-21T19:10:49.946Z,48.74
2019-03-21T19:13:16.526Z,49.06
2019-03-21T19:15:43.151Z,48.62
2019-03-21T19:18:09.728Z,48.82
2019-03-21T19:20:36.348Z,48.63
2019-03-21T19:23:02.922Z,48.80
2019-03-21T19:25:29.543Z,48.92
2019-03-21T19:27:56.130Z,48.71
2019-03-21T19:30:22.755Z,49.00
2019-03-21T19:32:49.334Z,49.08
2019-03-21T19:35:15.969Z,49.11
2019-03-21T19:37:42.556Z,49.19
2019-03-21T19:40:09.173Z,50.03
2019-03-21T19:42:35.746Z,49.18
2019-03-21T19:45:02.325Z,49.60
2019-03-21T19:47:30.527Z,49.77
2019-03-21T19:49:57.265Z,49.72
2019-03-21T19:52:23.849Z,50.13
2019-03-21T19:54:50.424Z,49.88
2019-03-21T19:57:17.011Z,50.58
2019-03-21T19:59:43.592Z,50.50
2019-03-21T20:02:10.176Z,50.83
2019-03-21T20:04:36.757Z,50.68
2019-03-21T20:07:03.342Z,50.52
2019-03-21T20:09:29.924Z,50.57
2019-03-21T20:11:56.500Z,50.77
2019-03-21T20:14:23.082Z,50.29
2019-03-21T20:16:49.664Z,50.28
2019-03-21T20:19:16.251Z,50.36
2019-03-21T20:21:47.818Z,50.23
2019-03-21T20:24:11.149Z,50.32
2019-03-21T20:26:37.853Z,50.53
2019-03-21T20:29:04.446Z,51.06
2019-03-21T20:31:31.026Z,50.16
2019-03-21T20:33:57.683Z,50.31
2019-03-21T20:36:24.262Z,50.32
2019-03-21T20:38:50.843Z,50.76
2019-03-21T20:41:17.452Z,50.64
2019-03-21T20:43:44.030Z,50.71
2019-03-21T20:46:10.614Z,50.70
2019-03-21T20:48:37.211Z,50.65
2019-03-21T20:51:03.803Z,50.56
2019-03-21T20:53:30.385Z,50.65
2019-03-21T20:55:57.000Z,50.41
2019-03-21T20:58:23.586Z,50.69
2019-03-21T21:00:50.275Z,50.65
2019-03-21T21:03:16.847Z,50.73
2019-03-21T21:05:43.433Z,50.73
2019-03-21T21:08:10.082Z,50.49
2019-03-21T21:10:36.657Z,50.90
2019-03-21T21:13:03.226Z,50.79
2019-03-21T21:15:29.806Z,50.68
2019-03-21T21:17:56.427Z,50.62
2019-03-21T21:20:22.997Z,50.88
2019-03-21T21:22:49.596Z,50.94
2019-03-21T21:25:16.173Z,50.63
2019-03-21T21:27:49.310Z,50.66
2019-03-21T21:30:11.093Z,50.91
2019-03-21T21:32:37.711Z,50.87
2019-03-21T21:35:04.285Z,50.86
2019-03-21T21:37:30.962Z,50.86
2019-03-21T21:39:57.577Z,50.98
2019-03-21T21:42:24.440Z,51.17
2019-03-21T21:44:51.032Z,51.09
2019-03-21T21:47:17.640Z,51.08
2019-03-21T21:49:44.214Z,51.12
2019-03-21T21:52:10.814Z,51.05
2019-03-21T21:54:37.382Z,50.96
2019-03-21T21:57:03.996Z,51.23
2019-03-21T21:59:30.594Z,51.03
2019-03-21T22:01:57.203Z,50.98
2019-03-21T22:04:23.786Z,51.25
2019-03-21T22:06:51.485Z,51.25
2019-03-21T22:09:18.067Z,51.27
2019-03-21T22:11:44.691Z,51.50
2019-03-21T22:14:11.271Z,51.85
2019-03-21T22:16:37.898Z,51.94
2019-03-21T22:19:04.472Z,52.07
2019-03-21T22:21:31.072Z,52.23
2019-03-21T22:23:57.665Z,52.13
2019-03-21T22:26:29.577Z,52.13
2019-03-21T22:28:52.547Z,51.97
2019-03-21T22:31:19.120Z,52.05
2019-03-21T22:33:45.695Z,52.06
2019-03-21T22:36:12.276Z,52.14
2019-03-21T22:38:38.856Z,51.97
2019-03-21T22:41:05.441Z,51.92
2019-03-21T22:43:32.017Z,51.75
2019-03-21T22:45:58.594Z,51.90
2019-03-21T22:48:25.174Z,51.62
2019-03-21T22:50:51.750Z,51.85
2019-03-21T22:53:18.333Z,51.85
2019-03-21T22:55:44.904Z,51.71
2019-03-21T22:58:11.536Z,51.87
2019-03-21T23:00:38.124Z,51.81
2019-03-21T23:03:04.700Z,51.95
2019-03-21T23:05:31.308Z,51.82
2019-03-21T23:07:57.891Z,51.75
2019-03-21T23:10:24.468Z,51.84
2019-03-21T23:12:51.063Z,51.87
2019-03-21T23:15:17.636Z,51.77
2019-03-21T23:17:44.221Z,51.88
2019-03-21T23:20:10.791Z,51.94
2019-03-21T23:22:37.398Z,51.93
2019-03-21T23:25:03.968Z,51.91
2019-03-21T23:27:30.595Z,52.01
2019-03-21T23:29:57.171Z,51.94
2019-03-21T23:32:23.786Z,51.88
2019-03-21T23:34:50.364Z,51.97
2019-03-21T23:37:16.999Z,51.95
2019-03-21T23:39:43.568Z,52.02
2019-03-21T23:42:10.187Z,52.10
2019-03-21T23:44:36.758Z,52.10
2019-03-21T23:47:03.339Z,52.08
2019-03-21T23:49:29.917Z,52.30
2019-03-21T23:51:56.491Z,52.82
2019-03-21T23:54:23.191Z,52.45
2019-03-21T23:56:49.774Z,52.89
2019-03-21T23:59:16.357Z,53.08
